sensor_id;sensor_type;location;lat;lon;timestamp;pressure;altitude;pressure_sealevel;temperature;humidity
71126;BME280;58785;55.566;38.058;2023-06-26T00:01:42;100192.31;;;14.88;76.85
71126;BME280;58785;55.566;38.058;2023-06-26T00:04:08;100205.19;;;14.93;77.00
71126;BME280;58785;55.566;38.058;2023-06-26T00:06:40;100194.63;;;14.91;77.10
71126;BME280;58785;55.566;38.058;2023-06-26T00:09:06;100191.94;;;14.91;76.86
71126;BME280;58785;55.566;38.058;2023-06-26T00:11:31;100195.81;;;14.89;77.23
71126;BME280;58785;55.566;38.058;2023-06-26T00:13:59;100199.53;;;14.88;77.26
71126;BME280;58785;55.566;38.058;2023-06-26T00:16:26;100191.47;;;14.88;77.15
71126;BME280;58785;55.566;38.058;2023-06-26T00:18:52;100192.47;;;14.87;77.22
71126;BME280;58785;55.566;38.058;2023-06-26T00:21:18;100179.09;;;14.79;77.10
71126;BME280;58785;55.566;38.058;2023-06-26T00:23:45;100179.25;;;14.77;76.99
71126;BME280;58785;55.566;38.058;2023-06-26T00:26:11;100182.13;;;14.76;77.43
71126;BME280;58785;55.566;38.058;2023-06-26T00:28:37;100188.31;;;14.76;77.23
71126;BME280;58785;55.566;38.058;2023-06-26T00:31:03;100176.25;;;14.72;77.32
71126;BME280;58785;55.566;38.058;2023-06-26T00:33:28;100192.03;;;14.75;77.29
71126;BME280;58785;55.566;38.058;2023-06-26T00:35:54;100195.03;;;14.72;77.43
71126;BME280;58785;55.566;38.058;2023-06-26T00:38:20;100179.09;;;14.71;77.40
71126;BME280;58785;55.566;38.058;2023-06-26T00:40:46;100191.03;;;14.68;77.13
71126;BME280;58785;55.566;38.058;2023-06-26T00:43:12;100177.44;;;14.61;77.29
71126;BME280;58785;55.566;38.058;2023-06-26T00:45:38;100185.31;;;14.63;77.13
71126;BME280;58785;55.566;38.058;2023-06-26T00:48:04;100181.81;;;14.62;77.31
71126;BME280;58785;55.566;38.058;2023-06-26T00:50:31;100183.66;;;14.62;77.21
71126;BME280;58785;55.566;38.058;2023-06-26T00:52:57;100180.97;;;14.62;77.38
71126;BME280;58785;55.566;38.058;2023-06-26T00:55:27;100174.94;;;14.60;77.30
71126;BME280;58785;55.566;38.058;2023-06-26T00:57:54;100166.88;;;14.60;77.29
71126;BME280;58785;55.566;38.058;2023-06-26T01:00:20;100165.41;;;14.57;77.13
71126;BME280;58785;55.566;38.058;2023-06-26T01:02:46;100168.56;;;14.61;77.09
71126;BME280;58785;55.566;38.058;2023-06-26T01:05:13;100173.75;;;14.62;77.44
71126;BME280;58785;55.566;38.058;2023-06-26T01:07:48;100164.03;;;14.61;77.26
71126;BME280;58785;55.566;38.058;2023-06-26T01:10:14;100161.16;;;14.63;77.32
71126;BME280;58785;55.566;38.058;2023-06-26T01:12:40;100163.72;;;14.64;77.01
71126;BME280;58785;55.566;38.058;2023-06-26T01:15:06;100172.91;;;14.70;77.17
71126;BME280;58785;55.566;38.058;2023-06-26T01:17:33;100169.91;;;14.73;77.36
71126;BME280;58785;55.566;38.058;2023-06-26T01:20:00;100175.25;;;14.73;76.87
71126;BME280;58785;55.566;38.058;2023-06-26T01:22:49;100176.09;;;14.74;77.09
71126;BME280;58785;55.566;38.058;2023-06-26T01:26:08;100171.22;;;14.69;77.11
71126;BME280;58785;55.566;38.058;2023-06-26T01:28:38;100167.53;;;14.70;77.09
71126;BME280;58785;55.566;38.058;2023-06-26T01:31:05;100178.59;;;14.75;77.45
71126;BME280;58785;55.566;38.058;2023-06-26T01:33:32;100174.56;;;14.71;77.17
71126;BME280;58785;55.566;38.058;2023-06-26T01:35:58;100175.41;;;14.72;77.47
71126;BME280;58785;55.566;38.058;2023-06-26T01:38:24;100174.75;;;14.70;77.36
71126;BME280;58785;55.566;38.058;2023-06-26T01:40:51;100166.53;;;14.63;77.65
71126;BME280;58785;55.566;38.058;2023-06-26T01:45:54;100175.94;;;14.67;77.78
71126;BME280;58785;55.566;38.058;2023-06-26T01:48:26;100173.25;;;14.67;77.76
71126;BME280;58785;55.566;38.058;2023-06-26T01:50:54;100176.59;;;14.69;77.97
71126;BME280;58785;55.566;38.058;2023-06-26T01:53:25;100186.97;;;14.72;77.82
71126;BME280;58785;55.566;38.058;2023-06-26T01:56:07;100178.44;;;14.69;77.61
71126;BME280;58785;55.566;38.058;2023-06-26T01:58:35;100173.91;;;14.69;78.12
71126;BME280;58785;55.566;38.058;2023-06-26T02:01:01;100188.50;;;14.75;77.76
71126;BME280;58785;55.566;38.058;2023-06-26T02:03:27;100185.81;;;14.75;77.79
71126;BME280;58785;55.566;38.058;2023-06-26T02:05:53;100189.34;;;14.75;78.17
71126;BME280;58785;55.566;38.058;2023-06-26T02:08:19;100175.41;;;14.72;78.08
71126;BME280;58785;55.566;38.058;2023-06-26T02:10:44;100189.34;;;14.75;78.04
71126;BME280;58785;55.566;38.058;2023-06-26T02:13:10;100176.41;;;14.71;77.88
71126;BME280;58785;55.566;38.058;2023-06-26T02:15:36;100180.63;;;14.73;78.23
71126;BME280;58785;55.566;38.058;2023-06-26T02:18:02;100182.97;;;14.76;78.09
71126;BME280;58785;55.566;38.058;2023-06-26T02:20:28;100191.66;;;14.78;78.03
71126;BME280;58785;55.566;38.058;2023-06-26T02:22:54;100183.44;;;14.80;77.91
71126;BME280;58785;55.566;38.058;2023-06-26T02:25:20;100190.47;;;14.81;78.02
71126;BME280;58785;55.566;38.058;2023-06-26T02:27:45;100190.16;;;14.84;77.75
71126;BME280;58785;55.566;38.058;2023-06-26T02:30:11;100178.72;;;14.82;77.79
71126;BME280;58785;55.566;38.058;2023-06-26T02:32:37;100186.75;;;14.90;78.19
71126;BME280;58785;55.566;38.058;2023-06-26T02:35:03;100185.75;;;14.91;77.58
71126;BME280;58785;55.566;38.058;2023-06-26T02:37:29;100178.03;;;14.96;77.82
71126;BME280;58785;55.566;38.058;2023-06-26T02:39:55;100188.03;;;15.02;77.85
71126;BME280;58785;55.566;38.058;2023-06-26T02:42:20;100182.00;;;15.08;77.52
71126;BME280;58785;55.566;38.058;2023-06-26T02:44:46;100179.44;;;15.15;77.69
71126;BME280;58785;55.566;38.058;2023-06-26T02:47:12;100174.72;;;15.17;77.52
71126;BME280;58785;55.566;38.058;2023-06-26T02:49:37;100178.25;;;15.17;77.88
71126;BME280;58785;55.566;38.058;2023-06-26T02:52:03;100173.72;;;15.18;78.00
71126;BME280;58785;55.566;38.058;2023-06-26T02:54:29;100190.38;;;15.44;77.54
71126;BME280;58785;55.566;38.058;2023-06-26T02:56:55;100186.13;;;15.81;77.49
71126;BME280;58785;55.566;38.058;2023-06-26T02:59:20;100177.69;;;16.22;76.25
71126;BME280;58785;55.566;38.058;2023-06-26T03:01:46;100184.47;;;16.70;75.43
71126;BME280;58785;55.566;38.058;2023-06-26T03:04:12;100203.34;;;17.14;74.51
71126;BME280;58785;55.566;38.058;2023-06-26T03:06:38;100197.94;;;17.50;74.06
71126;BME280;58785;55.566;38.058;2023-06-26T03:09:03;100190.75;;;17.72;73.61
71126;BME280;58785;55.566;38.058;2023-06-26T03:11:29;100195.38;;;18.00;72.64
71126;BME280;58785;55.566;38.058;2023-06-26T03:13:55;100193.63;;;18.14;72.50
71126;BME280;58785;55.566;38.058;2023-06-26T03:16:21;100191.34;;;18.38;71.83
71126;BME280;58785;55.566;38.058;2023-06-26T03:18:46;100182.97;;;18.61;71.27
71126;BME280;58785;55.566;38.058;2023-06-26T03:21:12;100180.88;;;18.85;70.73
71126;BME280;58785;55.566;38.058;2023-06-26T03:23:38;100186.63;;;19.10;70.17
71126;BME280;58785;55.566;38.058;2023-06-26T03:26:03;100184.41;;;19.27;69.60
71126;BME280;58785;55.566;38.058;2023-06-26T03:28:29;100192.97;;;19.43;68.72
71126;BME280;58785;55.566;38.058;2023-06-26T03:30:56;100187.66;;;19.57;68.39
71126;BME280;58785;55.566;38.058;2023-06-26T03:33:22;100187.03;;;19.61;67.80
71126;BME280;58785;55.566;38.058;2023-06-26T03:35:47;100174.13;;;19.57;67.75
71126;BME280;58785;55.566;38.058;2023-06-26T03:38:13;100182.03;;;19.58;67.21
71126;BME280;58785;55.566;38.058;2023-06-26T03:40:39;100180.41;;;19.77;66.66
71126;BME280;58785;55.566;38.058;2023-06-26T03:43:04;100180.00;;;20.13;65.99
71126;BME280;58785;55.566;38.058;2023-06-26T03:45:30;100181.69;;;20.54;64.94
71126;BME280;58785;55.566;38.058;2023-06-26T03:47:56;100180.78;;;20.93;64.14
71126;BME280;58785;55.566;38.058;2023-06-26T03:50:21;100183.78;;;21.36;63.33
71126;BME280;58785;55.566;38.058;2023-06-26T03:52:47;100173.94;;;21.73;62.50
71126;BME280;58785;55.566;38.058;2023-06-26T03:55:13;100179.22;;;22.00;61.28
71126;BME280;58785;55.566;38.058;2023-06-26T03:57:38;100165.63;;;22.06;60.38
71126;BME280;58785;55.566;38.058;2023-06-26T04:00:04;100176.13;;;22.21;60.12
71126;BME280;58785;55.566;38.058;2023-06-26T04:02:34;100178.47;;;22.43;59.53
71126;BME280;58785;55.566;38.058;2023-06-26T04:05:04;100164.97;;;22.54;58.85
71126;BME280;58785;55.566;38.058;2023-06-26T04:07:30;100161.34;;;22.60;58.68
71126;BME280;58785;55.566;38.058;2023-06-26T04:10:00;100165.09;;;22.84;57.55
71126;BME280;58785;55.566;38.058;2023-06-26T04:12:25;100167.81;;;23.03;57.55
71126;BME280;58785;55.566;38.058;2023-06-26T04:14:51;100165.31;;;23.19;57.10
71126;BME280;58785;55.566;38.058;2023-06-26T04:17:17;100167.91;;;23.44;56.09
71126;BME280;58785;55.566;38.058;2023-06-26T04:19:42;100172.19;;;23.52;55.86
71126;BME280;58785;55.566;38.058;2023-06-26T04:22:08;100168.03;;;23.68;55.67
71126;BME280;58785;55.566;38.058;2023-06-26T04:24:33;100168.16;;;23.73;55.63
71126;BME280;58785;55.566;38.058;2023-06-26T04:26:59;100166.28;;;23.73;56.05
71126;BME280;58785;55.566;38.058;2023-06-26T04:29:28;100164.19;;;23.57;56.83
71126;BME280;58785;55.566;38.058;2023-06-26T04:31:53;100170.84;;;23.61;56.24
71126;BME280;58785;55.566;38.058;2023-06-26T04:34:27;100172.59;;;23.86;55.07
71126;BME280;58785;55.566;38.058;2023-06-26T04:36:56;100171.22;;;24.06;54.79
71126;BME280;58785;55.566;38.058;2023-06-26T04:39:22;100173.63;;;24.26;54.75
71126;BME280;58785;55.566;38.058;2023-06-26T04:41:48;100168.69;;;24.47;53.71
71126;BME280;58785;55.566;38.058;2023-06-26T04:44:13;100171.75;;;24.62;53.45
71126;BME280;58785;55.566;38.058;2023-06-26T04:46:39;100171.84;;;24.79;53.03
71126;BME280;58785;55.566;38.058;2023-06-26T04:49:10;100162.09;;;24.94;52.04
71126;BME280;58785;55.566;38.058;2023-06-26T04:51:36;100165.31;;;25.03;51.42
71126;BME280;58785;55.566;38.058;2023-06-26T04:54:09;100160.56;;;25.10;51.32
71126;BME280;58785;55.566;38.058;2023-06-26T04:56:36;100155.78;;;25.17;51.01
71126;BME280;58785;55.566;38.058;2023-06-26T04:59:02;100157.94;;;25.15;51.30
71126;BME280;58785;55.566;38.058;2023-06-26T05:01:29;100155.63;;;25.36;51.66
71126;BME280;58785;55.566;38.058;2023-06-26T05:03:56;100154.75;;;25.64;50.71
71126;BME280;58785;55.566;38.058;2023-06-26T05:06:22;100157.22;;;25.77;49.94
71126;BME280;58785;55.566;38.058;2023-06-26T05:08:48;100151.66;;;25.72;49.55
71126;BME280;58785;55.566;38.058;2023-06-26T05:11:13;100161.75;;;25.71;49.83
71126;BME280;58785;55.566;38.058;2023-06-26T05:13:39;100165.50;;;25.82;49.82
71126;BME280;58785;55.566;38.058;2023-06-26T05:16:05;100163.78;;;25.93;49.46
71126;BME280;58785;55.566;38.058;2023-06-26T05:18:33;100168.34;;;26.04;49.64
71126;BME280;58785;55.566;38.058;2023-06-26T05:20:59;100160.66;;;26.18;49.50
71126;BME280;58785;55.566;38.058;2023-06-26T05:23:25;100162.97;;;26.26;49.38
71126;BME280;58785;55.566;38.058;2023-06-26T05:25:52;100156.81;;;26.35;48.91
71126;BME280;58785;55.566;38.058;2023-06-26T05:28:18;100151.78;;;26.44;48.62
71126;BME280;58785;55.566;38.058;2023-06-26T05:30:44;100159.97;;;26.61;48.05
71126;BME280;58785;55.566;38.058;2023-06-26T05:33:11;100151.34;;;26.69;48.14
71126;BME280;58785;55.566;38.058;2023-06-26T05:35:38;100156.44;;;26.82;48.74
71126;BME280;58785;55.566;38.058;2023-06-26T05:38:04;100147.78;;;26.90;47.92
71126;BME280;58785;55.566;38.058;2023-06-26T05:40:30;100160.22;;;26.98;48.20
71126;BME280;58785;55.566;38.058;2023-06-26T05:42:56;100153.28;;;27.12;47.12
71126;BME280;58785;55.566;38.058;2023-06-26T05:45:22;100148.44;;;27.19;47.50
71126;BME280;58785;55.566;38.058;2023-06-26T05:47:48;100154.09;;;27.35;47.49
71126;BME280;58785;55.566;38.058;2023-06-26T05:50:16;100148.38;;;27.36;46.51
71126;BME280;58785;55.566;38.058;2023-06-26T05:52:43;100146.34;;;27.27;46.38
71126;BME280;58785;55.566;38.058;2023-06-26T05:55:10;100150.75;;;27.28;46.58
71126;BME280;58785;55.566;38.058;2023-06-26T05:57:37;100141.84;;;27.42;45.89
71126;BME280;58785;55.566;38.058;2023-06-26T06:00:03;100140.31;;;27.52;45.64
71126;BME280;58785;55.566;38.058;2023-06-26T06:02:32;100147.19;;;27.54;46.02
71126;BME280;58785;55.566;38.058;2023-06-26T06:04:57;100135.09;;;27.50;45.77
71126;BME280;58785;55.566;38.058;2023-06-26T06:07:23;100142.59;;;27.60;45.59
71126;BME280;58785;55.566;38.058;2023-06-26T06:09:49;100152.53;;;27.66;45.40
71126;BME280;58785;55.566;38.058;2023-06-26T06:12:14;100145.47;;;27.70;45.02
71126;BME280;58785;55.566;38.058;2023-06-26T06:14:40;100146.03;;;27.72;45.19
71126;BME280;58785;55.566;38.058;2023-06-26T06:17:06;100140.75;;;27.65;44.36
71126;BME280;58785;55.566;38.058;2023-06-26T06:19:31;100136.84;;;27.61;44.34
71126;BME280;58785;55.566;38.058;2023-06-26T06:21:59;100138.34;;;27.69;44.16
71126;BME280;58785;55.566;38.058;2023-06-26T06:24:25;100146.66;;;27.79;44.77
71126;BME280;58785;55.566;38.058;2023-06-26T06:26:50;100145.91;;;27.89;44.44
71126;BME280;58785;55.566;38.058;2023-06-26T06:29:16;100141.34;;;27.99;44.59
71126;BME280;58785;55.566;38.058;2023-06-26T06:31:44;100145.53;;;28.07;44.03
71126;BME280;58785;55.566;38.058;2023-06-26T06:34:09;100151.66;;;28.19;44.21
71126;BME280;58785;55.566;38.058;2023-06-26T06:36:35;100137.09;;;28.19;44.54
71126;BME280;58785;55.566;38.058;2023-06-26T06:39:00;100142.94;;;28.27;44.92
71126;BME280;58785;55.566;38.058;2023-06-26T06:41:26;100144.63;;;28.28;45.26
71126;BME280;58785;55.566;38.058;2023-06-26T06:43:52;100130.91;;;28.28;44.90
71126;BME280;58785;55.566;38.058;2023-06-26T06:46:18;100132.81;;;28.28;44.82
71126;BME280;58785;55.566;38.058;2023-06-26T06:48:43;100132.72;;;28.18;44.55
71126;BME280;58785;55.566;38.058;2023-06-26T06:51:09;100130.47;;;28.10;44.27
71126;BME280;58785;55.566;38.058;2023-06-26T06:53:35;100133.28;;;27.88;43.81
71126;BME280;58785;55.566;38.058;2023-06-26T06:56:00;100126.41;;;27.58;43.98
71126;BME280;58785;55.566;38.058;2023-06-26T06:58:26;100122.38;;;27.39;44.52
71126;BME280;58785;55.566;38.058;2023-06-26T07:00:52;100131.63;;;27.33;44.38
71126;BME280;58785;55.566;38.058;2023-06-26T07:03:18;100125.69;;;27.41;43.89
71126;BME280;58785;55.566;38.058;2023-06-26T07:05:44;100128.59;;;27.56;44.04
71126;BME280;58785;55.566;38.058;2023-06-26T07:08:10;100120.59;;;27.76;44.36
71126;BME280;58785;55.566;38.058;2023-06-26T07:10:36;100128.72;;;27.98;44.17
71126;BME280;58785;55.566;38.058;2023-06-26T07:13:01;100115.94;;;28.14;43.95
71126;BME280;58785;55.566;38.058;2023-06-26T07:15:27;100119.94;;;28.28;43.92
71126;BME280;58785;55.566;38.058;2023-06-26T07:17:53;100117.75;;;28.30;44.07
71126;BME280;58785;55.566;38.058;2023-06-26T07:20:18;100121.59;;;28.29;43.85
71126;BME280;58785;55.566;38.058;2023-06-26T07:22:44;100120.50;;;28.30;42.79
71126;BME280;58785;55.566;38.058;2023-06-26T07:25:11;100120.75;;;28.29;42.80
71126;BME280;58785;55.566;38.058;2023-06-26T07:27:37;100113.63;;;28.33;42.98
71126;BME280;58785;55.566;38.058;2023-06-26T07:30:04;100106.56;;;28.37;42.79
71126;BME280;58785;55.566;38.058;2023-06-26T07:32:31;100117.81;;;28.46;42.02
71126;BME280;58785;55.566;38.058;2023-06-26T07:34:57;100112.97;;;28.58;41.49
71126;BME280;58785;55.566;38.058;2023-06-26T07:37:23;100113.81;;;28.58;41.33
71126;BME280;58785;55.566;38.058;2023-06-26T07:39:49;100113.50;;;28.55;41.62
71126;BME280;58785;55.566;38.058;2023-06-26T07:42:15;100111.56;;;28.55;41.48
71126;BME280;58785;55.566;38.058;2023-06-26T07:44:43;100111.63;;;28.60;41.05
71126;BME280;58785;55.566;38.058;2023-06-26T07:47:09;100106.13;;;28.60;41.94
71126;BME280;58785;55.566;38.058;2023-06-26T07:49:35;100102.31;;;28.67;41.36
71126;BME280;58785;55.566;38.058;2023-06-26T07:52:01;100095.53;;;28.79;41.25
71126;BME280;58785;55.566;38.058;2023-06-26T07:54:27;100089.47;;;28.82;40.95
71126;BME280;58785;55.566;38.058;2023-06-26T07:59:22;100089.28;;;28.89;41.01
71126;BME280;58785;55.566;38.058;2023-06-26T08:01:51;100087.28;;;28.79;40.45
71126;BME280;58785;55.566;38.058;2023-06-26T08:04:22;100098.34;;;28.89;40.39
71126;BME280;58785;55.566;38.058;2023-06-26T08:06:49;100093.66;;;28.90;39.94
71126;BME280;58785;55.566;38.058;2023-06-26T08:09:16;100092.72;;;28.69;39.61
71126;BME280;58785;55.566;38.058;2023-06-26T08:11:42;100091.59;;;28.18;40.35
71126;BME280;58785;55.566;38.058;2023-06-26T08:14:08;100086.19;;;27.96;40.65
71126;BME280;58785;55.566;38.058;2023-06-26T08:16:33;100082.34;;;27.92;41.20
71126;BME280;58785;55.566;38.058;2023-06-26T08:18:59;100076.38;;;28.05;40.30
71126;BME280;58785;55.566;38.058;2023-06-26T08:21:25;100083.03;;;28.14;40.20
71126;BME280;58785;55.566;38.058;2023-06-26T08:23:51;100088.31;;;28.21;39.68
71126;BME280;58785;55.566;38.058;2023-06-26T08:26:16;100086.44;;;28.26;39.38
71126;BME280;58785;55.566;38.058;2023-06-26T08:28:42;100087.03;;;28.33;39.42
71126;BME280;58785;55.566;38.058;2023-06-26T08:31:08;100073.94;;;28.46;39.95
71126;BME280;58785;55.566;38.058;2023-06-26T08:33:33;100081.94;;;28.52;40.07
71126;BME280;58785;55.566;38.058;2023-06-26T08:35:59;100076.41;;;28.42;39.39
71126;BME280;58785;55.566;38.058;2023-06-26T08:38:24;100078.91;;;28.12;39.65
71126;BME280;58785;55.566;38.058;2023-06-26T08:40:50;100076.03;;;27.91;39.65
71126;BME280;58785;55.566;38.058;2023-06-26T08:43:16;100085.81;;;27.82;40.42
71126;BME280;58785;55.566;38.058;2023-06-26T08:45:42;100084.66;;;27.73;40.00
71126;BME280;58785;55.566;38.058;2023-06-26T08:48:08;100087.59;;;27.39;40.30
71126;BME280;58785;55.566;38.058;2023-06-26T08:50:36;100087.97;;;26.99;40.22
71126;BME280;58785;55.566;38.058;2023-06-26T08:56:02;100075.94;;;26.78;40.47
71126;BME280;58785;55.566;38.058;2023-06-26T08:58:27;100070.22;;;26.80;40.99
71126;BME280;58785;55.566;38.058;2023-06-26T09:00:54;100078.09;;;26.76;40.87
71126;BME280;58785;55.566;38.058;2023-06-26T09:03:21;100080.25;;;26.74;41.49
71126;BME280;58785;55.566;38.058;2023-06-26T09:05:47;100070.00;;;26.64;41.70
71126;BME280;58785;55.566;38.058;2023-06-26T09:08:13;100067.09;;;26.49;42.38
71126;BME280;58785;55.566;38.058;2023-06-26T09:10:39;100072.47;;;26.44;42.00
71126;BME280;58785;55.566;38.058;2023-06-26T09:13:05;100070.00;;;26.43;41.90
71126;BME280;58785;55.566;38.058;2023-06-26T09:15:57;100070.91;;;26.48;41.97
71126;BME280;58785;55.566;38.058;2023-06-26T09:18:24;100055.72;;;26.57;42.16
71126;BME280;58785;55.566;38.058;2023-06-26T09:20:50;100052.59;;;26.71;42.05
71126;BME280;58785;55.566;38.058;2023-06-26T09:23:16;100072.69;;;26.81;41.64
71126;BME280;58785;55.566;38.058;2023-06-26T09:25:42;100065.94;;;26.89;41.09
71126;BME280;58785;55.566;38.058;2023-06-26T09:28:10;100068.94;;;26.87;40.88
71126;BME280;58785;55.566;38.058;2023-06-26T09:30:36;100062.03;;;26.85;41.35
71126;BME280;58785;55.566;38.058;2023-06-26T09:33:18;100063.47;;;26.87;41.49
71126;BME280;58785;55.566;38.058;2023-06-26T09:35:46;100050.88;;;26.86;41.67
71126;BME280;58785;55.566;38.058;2023-06-26T09:38:13;100053.84;;;26.85;41.16
71126;BME280;58785;55.566;38.058;2023-06-26T09:40:39;100050.50;;;26.78;40.49
71126;BME280;58785;55.566;38.058;2023-06-26T09:43:06;100050.97;;;26.75;40.50
71126;BME280;58785;55.566;38.058;2023-06-26T09:45:35;100056.31;;;26.64;39.67
71126;BME280;58785;55.566;38.058;2023-06-26T09:48:04;100043.16;;;26.40;39.59
71126;BME280;58785;55.566;38.058;2023-06-26T09:50:32;100056.53;;;26.19;39.88
71126;BME280;58785;55.566;38.058;2023-06-26T09:53:07;100047.44;;;25.97;40.36
71126;BME280;58785;55.566;38.058;2023-06-26T09:55:35;100058.13;;;25.82;40.76
71126;BME280;58785;55.566;38.058;2023-06-26T09:58:03;100046.53;;;25.74;41.29
71126;BME280;58785;55.566;38.058;2023-06-26T10:00:30;100043.06;;;25.79;41.59
71126;BME280;58785;55.566;38.058;2023-06-26T10:02:56;100049.16;;;25.69;41.08
71126;BME280;58785;55.566;38.058;2023-06-26T10:05:21;100045.50;;;25.47;41.29
71126;BME280;58785;55.566;38.058;2023-06-26T10:07:47;100048.47;;;25.29;41.53
71126;BME280;58785;55.566;38.058;2023-06-26T10:10:14;100048.66;;;25.10;41.20
71126;BME280;58785;55.566;38.058;2023-06-26T10:12:42;100045.59;;;24.95;41.93
71126;BME280;58785;55.566;38.058;2023-06-26T10:15:12;100032.41;;;24.75;42.12
71126;BME280;58785;55.566;38.058;2023-06-26T10:17:42;100040.34;;;24.77;42.73
71126;BME280;58785;55.566;38.058;2023-06-26T10:20:09;100037.00;;;24.86;42.42
71126;BME280;58785;55.566;38.058;2023-06-26T10:22:39;100034.28;;;25.15;42.39
71126;BME280;58785;55.566;38.058;2023-06-26T10:25:06;100036.00;;;25.49;41.66
71126;BME280;58785;55.566;38.058;2023-06-26T10:27:36;100018.44;;;25.62;41.06
71126;BME280;58785;55.566;38.058;2023-06-26T10:30:08;100030.03;;;25.52;40.55
71126;BME280;58785;55.566;38.058;2023-06-26T10:32:35;100033.09;;;25.39;40.59
71126;BME280;58785;55.566;38.058;2023-06-26T10:35:02;100029.59;;;25.44;41.06
71126;BME280;58785;55.566;38.058;2023-06-26T10:37:49;100022.34;;;25.66;40.90
71126;BME280;58785;55.566;38.058;2023-06-26T10:40:22;100015.13;;;25.94;40.79
71126;BME280;58785;55.566;38.058;2023-06-26T10:42:50;100009.97;;;26.14;40.61
71126;BME280;58785;55.566;38.058;2023-06-26T10:45:20;100004.97;;;26.28;40.76
71126;BME280;58785;55.566;38.058;2023-06-26T10:47:48;100009.78;;;26.38;40.70
71126;BME280;58785;55.566;38.058;2023-06-26T10:50:27;100000.81;;;26.25;40.02
71126;BME280;58785;55.566;38.058;2023-06-26T10:55:50;100000.31;;;26.06;39.42
71126;BME280;58785;55.566;38.058;2023-06-26T11:03:44;99993.81;;;26.13;38.59
71126;BME280;58785;55.566;38.058;2023-06-26T11:06:18;99993.34;;;26.16;38.93
71126;BME280;58785;55.566;38.058;2023-06-26T11:08:51;99993.38;;;26.21;39.28
71126;BME280;58785;55.566;38.058;2023-06-26T11:14:31;99988.19;;;26.19;38.58
71126;BME280;58785;55.566;38.058;2023-06-26T11:16:58;99983.41;;;26.31;37.76
71126;BME280;58785;55.566;38.058;2023-06-26T11:19:26;99983.41;;;26.31;37.24
71126;BME280;58785;55.566;38.058;2023-06-26T11:21:58;99988.75;;;26.21;37.26
71126;BME280;58785;55.566;38.058;2023-06-26T11:24:24;99988.91;;;26.15;37.40
71126;BME280;58785;55.566;38.058;2023-06-26T11:26:49;99976.94;;;26.16;37.31
71126;BME280;58785;55.566;38.058;2023-06-26T11:29:15;99979.19;;;26.24;37.13
71126;BME280;58785;55.566;38.058;2023-06-26T11:31:42;99983.97;;;26.33;37.12
71126;BME280;58785;55.566;38.058;2023-06-26T11:34:10;99975.44;;;26.47;36.97
71126;BME280;58785;55.566;38.058;2023-06-26T11:36:41;99970.66;;;26.59;36.76
71126;BME280;58785;55.566;38.058;2023-06-26T11:39:08;99972.41;;;26.70;36.69
71126;BME280;58785;55.566;38.058;2023-06-26T11:41:36;99967.50;;;26.72;36.85
71126;BME280;58785;55.566;38.058;2023-06-26T11:44:06;99960.78;;;26.85;36.64
71126;BME280;58785;55.566;38.058;2023-06-26T11:46:34;99958.75;;;26.97;36.51
71126;BME280;58785;55.566;38.058;2023-06-26T11:49:06;99960.41;;;26.98;36.38
71126;BME280;58785;55.566;38.058;2023-06-26T11:51:32;99964.69;;;26.89;36.67
71126;BME280;58785;55.566;38.058;2023-06-26T11:54:01;99963.19;;;26.76;37.03
71126;BME280;58785;55.566;38.058;2023-06-26T11:56:30;99955.69;;;26.67;36.74
71126;BME280;58785;55.566;38.058;2023-06-26T11:58:56;99950.22;;;26.45;37.69
71126;BME280;58785;55.566;38.058;2023-06-26T12:04:00;99945.16;;;25.93;38.42
71126;BME280;58785;55.566;38.058;2023-06-26T12:06:28;99960.47;;;25.94;38.77
71126;BME280;58785;55.566;38.058;2023-06-26T12:08:55;99947.72;;;25.99;38.34
71126;BME280;58785;55.566;38.058;2023-06-26T12:11:23;99945.13;;;26.10;37.25
71126;BME280;58785;55.566;38.058;2023-06-26T12:13:50;99941.72;;;26.19;36.73
71126;BME280;58785;55.566;38.058;2023-06-26T12:16:16;99929.38;;;26.17;37.21
71126;BME280;58785;55.566;38.058;2023-06-26T12:18:41;99926.66;;;26.17;37.21
71126;BME280;58785;55.566;38.058;2023-06-26T12:21:08;99932.84;;;26.12;37.16
71126;BME280;58785;55.566;38.058;2023-06-26T12:23:39;99925.47;;;26.13;37.37
71126;BME280;58785;55.566;38.058;2023-06-26T12:26:21;99930.13;;;26.12;38.21
71126;BME280;58785;55.566;38.058;2023-06-26T12:28:47;99926.00;;;26.10;37.73
71126;BME280;58785;55.566;38.058;2023-06-26T12:31:14;99923.09;;;26.16;38.09
71126;BME280;58785;55.566;38.058;2023-06-26T12:33:43;99925.56;;;26.18;37.97
71126;BME280;58785;55.566;38.058;2023-06-26T12:36:13;99933.94;;;26.11;38.07
71126;BME280;58785;55.566;38.058;2023-06-26T12:38:39;99921.00;;;25.85;37.92
71126;BME280;58785;55.566;38.058;2023-06-26T12:41:14;99926.84;;;25.71;38.62
71126;BME280;58785;55.566;38.058;2023-06-26T12:43:41;99921.84;;;25.68;37.87
71126;BME280;58785;55.566;38.058;2023-06-26T12:46:07;99929.16;;;25.79;37.67
71126;BME280;58785;55.566;38.058;2023-06-26T12:48:41;99922.91;;;25.84;38.04
71126;BME280;58785;55.566;38.058;2023-06-26T12:51:10;99918.94;;;25.92;38.13
71126;BME280;58785;55.566;38.058;2023-06-26T12:53:37;99922.88;;;26.01;37.90
71126;BME280;58785;55.566;38.058;2023-06-26T12:56:05;99901.84;;;26.01;37.28
71126;BME280;58785;55.566;38.058;2023-06-26T12:58:32;99920.72;;;26.03;37.42
71126;BME280;58785;55.566;38.058;2023-06-26T13:00:58;99917.09;;;25.97;37.84
71126;BME280;58785;55.566;38.058;2023-06-26T13:03:24;99919.97;;;25.86;38.30